createdAt,value
2022-08-17T01:51:54.917Z,100444.63
2022-08-17T01:54:24.323Z,100445.38
2022-08-17T01:56:52.930Z,100445.38
2022-08-17T01:59:20.491Z,100446.56
2022-08-17T02:01:48.739Z,100457.97
2022-08-17T02:04:16.554Z,100459.88
2022-08-17T02:06:52.590Z,100463.13
2022-08-17T02:09:29.673Z,100464.13
2022-08-17T02:12:00.045Z,100474.44
2022-08-17T02:14:47.513Z,100475.19
2022-08-17T02:17:15.050Z,100479.03
2022-08-17T02:19:42.565Z,100474.91
2022-08-17T02:22:10.409Z,100484.66
2022-08-17T02:25:00.188Z,100483.16
2022-08-17T02:27:26.844Z,100479.56
2022-08-17T02:29:54.246Z,100493.84
2022-08-17T02:32:28.101Z,100485.16
2022-08-17T02:34:57.983Z,100495.59
2022-08-17T02:37:30.018Z,100486.19
2022-08-17T02:39:59.594Z,100478.97
2022-08-17T02:42:34.586Z,100478.84
2022-08-17T02:45:05.229Z,100488.44
2022-08-17T02:47:32.714Z,100486.72
2022-08-17T02:50:00.221Z,100481.84
2022-08-17T02:52:57.301Z,100488.69
2022-08-17T02:55:26.159Z,100488.00
2022-08-17T02:57:54.049Z,100483.44
2022-08-17T03:00:33.911Z,100477.31
2022-08-17T03:03:03.203Z,100485.59
2022-08-17T03:05:32.858Z,100477.06
2022-08-17T03:08:00.466Z,100487.25
2022-08-17T03:10:30.545Z,100487.22
2022-08-17T03:12:58.460Z,100488.72
2022-08-17T03:15:29.281Z,100474.00
2022-08-17T03:17:57.881Z,100482.75
2022-08-17T03:20:27.521Z,100480.84
2022-08-17T03:22:56.707Z,100481.53
2022-08-17T03:25:32.073Z,100477.03
2022-08-17T03:28:02.429Z,100476.19
2022-08-17T03:30:31.088Z,100481.59
2022-08-17T03:33:01.816Z,100475.03
2022-08-17T03:35:32.134Z,100474.69
2022-08-17T03:38:01.289Z,100472.91
2022-08-17T03:40:34.384Z,100474.97
2022-08-17T03:43:19.986Z,100472.63
2022-08-17T03:46:06.250Z,100466.31
2022-08-17T03:49:11.960Z,100456.03
2022-08-17T03:51:58.345Z,100450.84
2022-08-17T03:54:44.333Z,100447.56
2022-08-17T03:57:14.562Z,100460.72
2022-08-17T03:59:42.085Z,100441.47
2022-08-17T04:02:32.684Z,100447.31
2022-08-17T04:05:00.329Z,100446.41
2022-08-17T04:07:33.258Z,100457.06
2022-08-17T04:10:01.086Z,100458.22
2022-08-17T04:12:42.625Z,100466.06
2022-08-17T04:15:12.990Z,100470.13
2022-08-17T04:17:40.598Z,100464.25
2022-08-17T04:20:08.695Z,100462.28
2022-08-17T04:22:36.164Z,100472.63
2022-08-17T04:25:16.051Z,100468.97
2022-08-17T04:27:43.571Z,100472.00
2022-08-17T04:30:11.722Z,100468.41
2022-08-17T04:33:10.466Z,100472.91
2022-08-17T04:35:44.032Z,100471.16
2022-08-17T04:38:16.309Z,100461.56
2022-08-17T04:41:03.062Z,100468.41
2022-08-17T04:43:32.751Z,100465.81
2022-08-17T04:46:10.269Z,100476.44
2022-08-17T04:48:55.095Z,100479.56
2022-08-17T04:51:35.906Z,100477.75
2022-08-17T04:54:10.145Z,100471.34
2022-08-17T04:56:47.265Z,100475.84
2022-08-17T04:59:22.218Z,100476.94
2022-08-17T05:01:51.296Z,100480.13
2022-08-17T05:04:34.372Z,100475.22
2022-08-17T05:07:04.697Z,100486.09
2022-08-17T05:09:32.592Z,100492.94
2022-08-17T05:12:03.398Z,100503.75
2022-08-17T05:14:33.031Z,100512.81
2022-08-17T05:17:07.378Z,100525.47
2022-08-17T05:19:38.749Z,100532.69
2022-08-17T05:22:06.661Z,100532.28
2022-08-17T05:24:43.124Z,100537.34
2022-08-17T05:27:21.374Z,100533.78
2022-08-17T05:29:50.862Z,100527.63
2022-08-17T05:32:39.084Z,100542.72
2022-08-17T05:35:09.921Z,100549.97
2022-08-17T05:37:37.749Z,100553.19
2022-08-17T05:40:09.248Z,100559.59
2022-08-17T05:42:41.046Z,100547.66
2022-08-17T06:26:03.859Z,100607.47
2022-08-17T06:28:39.542Z,100604.97
2022-08-17T06:31:15.678Z,100605.06
2022-08-17T06:33:46.432Z,100611.66
2022-08-17T06:36:54.375Z,100611.84
2022-08-17T06:39:53.896Z,100619.72
2022-08-17T06:43:02.629Z,100627.75
2022-08-17T06:45:43.709Z,100628.47
2022-08-17T06:51:22.959Z,100618.03
2022-08-17T06:54:05.698Z,100629.56
2022-08-17T06:56:54.085Z,100630.69
2022-08-17T06:59:53.011Z,100618.47
2022-08-17T07:02:50.891Z,100626.00
2022-08-17T07:05:24.872Z,100635.84
2022-08-17T07:08:11.707Z,100614.38
2022-08-17T07:10:47.275Z,100605.41
2022-08-17T07:13:34.196Z,100616.63
2022-08-17T07:16:31.272Z,100617.31
2022-08-17T07:19:00.115Z,100605.97
2022-08-17T07:21:47.279Z,100608.41
2022-08-17T07:24:29.444Z,100606.44
2022-08-17T07:27:16.169Z,100610.31
2022-08-17T07:30:10.852Z,100620.81
2022-08-17T07:33:03.219Z,100626.00
2022-08-17T07:35:37.942Z,100622.94
2022-08-17T07:38:25.748Z,100605.38
2022-08-17T07:41:04.850Z,100620.84
2022-08-17T07:43:40.135Z,100598.72
2022-08-17T07:46:56.983Z,100593.78
2022-08-17T07:49:31.819Z,100596.06
2022-08-17T07:52:47.549Z,100572.09
2022-08-17T07:54:53.098Z,100579.53
2022-08-17T07:57:25.408Z,100584.19
2022-08-17T08:00:01.400Z,100580.00
2022-08-17T08:02:34.479Z,100593.19
2022-08-17T09:09:20.459Z,100603.91
2022-08-17T09:16:45.691Z,100589.13
2022-08-17T09:19:35.535Z,100598.88
2022-08-17T15:57:16.623Z,100409.41
2022-08-17T15:59:52.088Z,100395.00
2022-08-17T16:03:45.087Z,100410.41
2022-08-17T16:05:19.896Z,100412.25
2022-08-17T16:07:49.276Z,100415.28
2022-08-17T16:10:23.003Z,100432.00
2022-08-17T16:13:05.582Z,100432.25
2022-08-17T16:15:57.272Z,100444.41
2022-08-17T16:18:30.853Z,100436.97
2022-08-17T16:21:23.640Z,100436.53
2022-08-17T16:23:56.200Z,100433.41
2022-08-17T16:26:24.353Z,100434.13
2022-08-17T16:28:52.284Z,100420.00
2022-08-17T16:31:20.022Z,100406.00
2022-08-17T16:34:17.458Z,100410.91
2022-08-17T16:36:37.459Z,100390.53
2022-08-17T16:39:08.433Z,100369.03
2022-08-17T16:41:45.356Z,100367.44
2022-08-17T16:44:18.422Z,100358.72
2022-08-17T16:46:47.371Z,100357.84
2022-08-17T16:49:35.865Z,100353.72
2022-08-17T16:52:10.648Z,100346.44
2022-08-17T16:54:43.782Z,100344.28
2022-08-17T16:57:13.217Z,100343.28
2022-08-17T16:59:44.905Z,100342.91
2022-08-17T17:02:16.503Z,100342.00
2022-08-17T17:04:53.314Z,100344.25
2022-08-17T17:07:44.297Z,100351.38
2022-08-17T17:10:38.875Z,100379.13
2022-08-17T17:13:32.411Z,100391.53
2022-08-17T17:16:13.060Z,100397.06
2022-08-17T17:18:55.992Z,100390.25
2022-08-17T17:21:32.649Z,100390.59
2022-08-17T17:24:07.513Z,100386.25
2022-08-17T17:27:07.080Z,100378.84
2022-08-17T17:29:56.766Z,100389.34
2022-08-17T17:32:39.952Z,100393.69
2022-08-17T17:35:26.327Z,100402.63
2022-08-17T17:37:57.427Z,100409.13
2022-08-17T17:40:47.566Z,100405.94
2022-08-17T17:43:38.173Z,100426.16
2022-08-17T17:46:29.506Z,100442.81
2022-08-17T17:48:58.143Z,100450.00
2022-08-17T17:52:07.850Z,100454.97
2022-08-17T17:54:45.913Z,100495.63
2022-08-17T17:57:33.723Z,100528.56
2022-08-17T18:00:09.960Z,100536.88
2022-08-17T18:02:51.594Z,100544.28
2022-08-17T18:05:44.456Z,100528.53
2022-08-17T18:08:42.843Z,100520.88
2022-08-17T18:11:24.001Z,100484.78
2022-08-17T18:14:16.153Z,100501.69
2022-08-17T18:16:45.371Z,100508.69
2022-08-17T18:19:15.209Z,100516.38
2022-08-17T18:21:46.454Z,100480.03
2022-08-17T18:24:14.100Z,100465.28
2022-08-17T18:26:51.336Z,100460.09
2022-08-17T18:29:24.490Z,100499.97
2022-08-17T18:32:19.874Z,100505.06
2022-08-17T18:34:56.673Z,100481.53
2022-08-17T18:37:48.462Z,100478.50
2022-08-17T18:40:21.685Z,100502.28
2022-08-17T18:42:55.100Z,100506.94
2022-08-17T18:45:38.813Z,100500.19
2022-08-17T18:48:39.639Z,100519.78
2022-08-17T18:51:41.629Z,100529.38
2022-08-17T18:58:30.185Z,100551.53
2022-08-17T19:05:38.281Z,100546.91
2022-08-17T19:08:38.845Z,100567.91
2022-08-17T19:11:41.638Z,100578.09
2022-08-17T19:14:23.542Z,100566.47
2022-08-17T19:17:07.044Z,100558.19
2022-08-17T19:19:52.474Z,100557.31
2022-08-17T19:22:30.865Z,100572.50
2022-08-17T19:25:18.211Z,100565.69
2022-08-17T19:28:22.449Z,100572.88
2022-08-17T19:31:06.161Z,100570.50
2022-08-17T19:33:41.233Z,100565.38
2022-08-17T19:40:41.657Z,100551.63
2022-08-17T19:43:48.288Z,100557.31
2022-08-17T19:46:43.044Z,100540.81
2022-08-17T19:51:23.787Z,100538.47
2022-08-17T19:54:15.298Z,100525.19
2022-08-17T19:57:04.900Z,100521.75
2022-08-17T19:59:49.115Z,100533.81
2022-08-17T20:02:59.542Z,100545.41
2022-08-17T20:06:01.381Z,100537.13
2022-08-17T20:08:40.176Z,100536.09
2022-08-17T20:11:20.458Z,100529.50
2022-08-17T20:13:58.586Z,100529.41
2022-08-17T20:16:26.727Z,100535.34
2022-08-17T20:19:14.757Z,100528.78
2022-08-17T20:21:55.808Z,100527.94
2022-08-17T20:24:34.827Z,100534.25
2022-08-17T20:27:31.288Z,100537.16
2022-08-17T20:30:10.510Z,100529.88
2022-08-17T20:32:56.115Z,100524.38
2022-08-17T20:35:28.683Z,100528.63
2022-08-17T20:38:29.939Z,100539.94
2022-08-17T20:40:57.498Z,100546.94
2022-08-17T20:43:34.156Z,100550.50
2022-08-17T20:46:32.626Z,100559.53
2022-08-17T20:49:20.999Z,100562.94
2022-08-17T20:52:13.503Z,100575.56
2022-08-17T20:54:57.232Z,100561.13
2022-08-17T20:57:32.237Z,100568.22
2022-08-17T21:00:18.259Z,100567.69
2022-08-17T21:02:49.994Z,100551.78
2022-08-17T21:05:57.425Z,100549.38
2022-08-17T21:08:33.999Z,100561.41
2022-08-17T21:12:02.734Z,100543.94
2022-08-17T21:14:33.372Z,100544.25
2022-08-17T21:17:18.479Z,100529.91
2022-08-17T21:20:10.156Z,100545.75
2022-08-17T21:23:16.327Z,100541.16
2022-08-17T21:26:02.489Z,100527.50
2022-08-17T21:29:00.872Z,100531.13
2022-08-17T21:32:05.398Z,100532.84
2022-08-17T21:34:36.476Z,100529.75
2022-08-17T21:37:18.960Z,100537.88
2022-08-17T21:39:59.668Z,100539.84
2022-08-17T21:42:33.408Z,100555.22
2022-08-17T21:45:10.245Z,100558.09
2022-08-17T21:47:43.637Z,100552.97
2022-08-17T21:50:21.258Z,100551.31
2022-08-17T21:52:53.949Z,100538.94
2022-08-17T21:55:28.707Z,100533.19
2022-08-17T21:58:13.872Z,100528.16
2022-08-17T22:00:46.170Z,100522.81
2022-08-17T22:03:25.995Z,100538.09
2022-08-17T22:05:53.534Z,100534.94
2022-08-17T22:08:24.425Z,100537.72
2022-08-17T22:11:00.841Z,100531.59
2022-08-17T22:13:29.684Z,100535.09
2022-08-17T22:16:15.669Z,100540.69
2022-08-17T22:18:58.936Z,100542.84
2022-08-17T22:21:26.893Z,100544.56
2022-08-17T22:24:20.395Z,100543.31
2022-08-17T22:27:11.695Z,100529.78
2022-08-17T22:29:57.816Z,100527.88
2022-08-17T22:32:37.968Z,100524.03
2022-08-17T22:35:37.378Z,100528.78
2022-08-17T22:38:20.025Z,100530.25
2022-08-17T22:40:53.880Z,100528.34
2022-08-17T22:43:26.176Z,100531.66
2022-08-17T22:45:59.235Z,100516.19
2022-08-17T22:48:29.429Z,100520.78
2022-08-17T22:51:12.593Z,100511.31
2022-08-17T22:54:08.624Z,100506.75
2022-08-17T22:56:55.899Z,100512.78
2022-08-17T22:59:55.786Z,100514.91
2022-08-17T23:02:27.868Z,100507.50
2022-08-17T23:05:10.868Z,100503.63
2022-08-17T23:07:40.216Z,100497.75
2022-08-17T23:10:10.919Z,100495.28
2022-08-17T23:12:39.875Z,100502.59
2022-08-17T23:15:14.410Z,100483.16
2022-08-17T23:17:42.151Z,100498.38
2022-08-17T23:20:13.055Z,100489.91
2022-08-17T23:22:51.095Z,100490.94
2022-08-17T23:25:38.195Z,100492.75
2022-08-17T23:28:08.741Z,100493.59
2022-08-17T23:30:41.336Z,100477.25
2022-08-17T23:33:17.374Z,100478.56
2022-08-17T23:35:45.337Z,100481.72
2022-08-17T23:38:13.686Z,100480.94
2022-08-17T23:40:41.374Z,100467.03
2022-08-17T23:43:24.776Z,100467.19
2022-08-17T23:45:55.082Z,100460.56
2022-08-17T23:48:34.949Z,100461.66
2022-08-17T23:51:08.726Z,100449.38
2022-08-17T23:53:40.262Z,100448.88
2022-08-17T23:56:11.217Z,100441.47
2022-08-17T23:58:44.197Z,100435.41
